Cove Neck, New York
Current Conditions -  °F | °C
As of 7:53 AM on Friday 24 Oct 2014 (Local Time) from KFRG Reporting Station
Overcast Overcast  
Wind Chill: 51°   Ceiling: 2400
Heat Index: 51°   Visibility: 10mi
Dew Point: 45°   Wind: 9mph
Humidity: 80%   Direction: 320°NW
Pressure: 29.8"   Gusts: NA
Location:  40.8615°N, 73.5265°W
Report Text: KFRG 241153Z 32008KT 10SM OVC024 11/07 A2980 RMK AO2 SLP091 70009 T01060072 10111 20106 51014
Loading
Personal Weather Stations






























Interactive Weather Map
Tropical Storm Tracking
New forecast layout! Learn more

10-Day Weather Forecast

Advertisements
Track Severe Weather on mobile